createdAt,value
2018-03-29T00:00:14.855Z,2.42
2018-03-29T00:02:42.522Z,2.53
2018-03-29T00:05:10.096Z,2.72
2018-03-29T00:07:37.731Z,3.40
2018-03-29T00:10:05.327Z,3.08
2018-03-29T00:12:32.956Z,3.50
2018-03-29T00:15:00.615Z,2.70
2018-03-29T00:17:28.295Z,2.55
2018-03-29T00:19:55.875Z,2.90
2018-03-29T00:22:23.474Z,2.75
2018-03-29T00:24:51.112Z,3.87
2018-03-29T00:27:18.703Z,3.08
2018-03-29T00:29:46.308Z,3.90
2018-03-29T00:32:14.673Z,2.97
2018-03-29T00:34:42.310Z,2.90
2018-03-29T00:37:09.916Z,3.17
2018-03-29T00:39:38.285Z,3.08
2018-03-29T00:42:06.651Z,2.67
2018-03-29T00:44:35.032Z,3.72
2018-03-29T00:47:03.361Z,3.42
2018-03-29T00:49:30.971Z,2.80
2018-03-29T00:51:58.619Z,3.80
2018-03-29T00:54:27.024Z,3.60
2018-03-29T00:56:54.591Z,3.42
2018-03-29T00:59:22.251Z,3.45
2018-03-29T01:01:50.606Z,3.55
2018-03-29T01:04:18.240Z,4.25
2018-03-29T01:06:45.813Z,2.80
2018-03-29T01:09:13.970Z,4.20
2018-03-29T01:11:41.657Z,4.78
2018-03-29T01:14:10.028Z,4.10
2018-03-29T01:16:37.646Z,3.60
2018-03-29T01:19:05.999Z,3.92
2018-03-29T01:21:33.822Z,2.92
2018-03-29T01:24:01.399Z,3.17
2018-03-29T01:26:29.083Z,4.20
2018-03-29T01:28:57.212Z,4.60
2018-03-29T01:31:24.860Z,3.47
2018-03-29T01:33:52.479Z,3.92
2018-03-29T01:36:20.095Z,5.20
2018-03-29T01:38:47.701Z,4.15
2018-03-29T01:41:15.311Z,3.92
2018-03-29T01:43:42.902Z,5.12
2018-03-29T01:46:10.508Z,3.60
2018-03-29T01:48:38.854Z,4.57
2018-03-29T01:51:06.462Z,4.57
2018-03-29T01:53:34.853Z,4.72
2018-03-29T01:56:02.577Z,5.40
2018-03-29T01:58:30.184Z,5.80
2018-03-29T02:00:57.850Z,5.30
2018-03-29T02:03:25.448Z,6.03
2018-03-29T02:05:53.098Z,6.00
2018-03-29T02:08:20.718Z,7.03
2018-03-29T02:10:48.339Z,6.70
2018-03-29T02:13:16.304Z,6.78
2018-03-29T02:15:44.006Z,6.70
2018-03-29T02:18:11.598Z,8.45
2018-03-29T02:20:39.608Z,7.50
2018-03-29T02:23:07.152Z,7.62
2018-03-29T02:25:34.764Z,5.18
2018-03-29T02:28:03.095Z,7.40
2018-03-29T02:30:30.724Z,6.55
2018-03-29T02:32:58.359Z,7.00
2018-03-29T02:35:27.226Z,7.43
2018-03-29T02:37:54.811Z,7.72
2018-03-29T02:40:22.454Z,6.75
2018-03-29T02:42:50.092Z,8.32
2018-03-29T02:45:17.714Z,7.93
2018-03-29T02:47:45.351Z,7.57
2018-03-29T02:50:13.723Z,7.50
2018-03-29T02:52:41.337Z,7.00
2018-03-29T02:55:08.998Z,7.70
2018-03-29T02:57:36.593Z,7.82
2018-03-29T03:00:04.243Z,8.02
2018-03-29T03:02:32.488Z,7.57
2018-03-29T03:05:00.078Z,7.18
2018-03-29T03:07:27.668Z,9.07
2018-03-29T03:09:56.049Z,6.00
2018-03-29T03:12:24.600Z,7.90
2018-03-29T03:14:52.220Z,10.05
2018-03-29T03:17:19.880Z,8.02
2018-03-29T03:19:47.492Z,7.55
2018-03-29T03:22:15.077Z,7.55
2018-03-29T03:24:42.689Z,6.65
2018-03-29T03:27:10.312Z,7.70
2018-03-29T03:29:38.739Z,7.82
2018-03-29T03:32:06.358Z,6.35
2018-03-29T03:34:33.970Z,9.50
2018-03-29T03:37:01.579Z,8.32
2018-03-29T03:39:29.982Z,8.27
2018-03-29T03:41:57.646Z,7.95
2018-03-29T03:44:25.279Z,8.60
2018-03-29T03:46:53.619Z,8.05
2018-03-29T03:49:21.211Z,8.02
2018-03-29T03:51:49.546Z,8.50
2018-03-29T03:54:17.230Z,9.27
2018-03-29T03:56:44.823Z,8.25
2018-03-29T03:59:12.434Z,9.40
2018-03-29T04:01:40.075Z,8.40
2018-03-29T04:04:07.699Z,8.80
2018-03-29T04:06:35.318Z,8.50
2018-03-29T04:09:02.988Z,9.45
2018-03-29T04:11:30.583Z,9.50
2018-03-29T04:13:58.198Z,8.27
2018-03-29T04:16:25.804Z,9.65
2018-03-29T04:18:54.213Z,10.63
2018-03-29T04:21:21.824Z,9.80
2018-03-29T04:23:49.463Z,8.65
2018-03-29T04:26:17.067Z,8.35
2018-03-29T04:28:45.474Z,8.27
2018-03-29T04:31:13.869Z,10.20
2018-03-29T04:33:41.558Z,8.77
2018-03-29T04:36:09.193Z,9.40
2018-03-29T04:38:36.802Z,9.23
2018-03-29T04:41:04.884Z,9.95
2018-03-29T04:43:33.258Z,10.07
2018-03-29T04:46:00.889Z,9.63
2018-03-29T04:48:28.929Z,8.88
2018-03-29T04:50:56.576Z,10.93
2018-03-29T04:53:24.212Z,9.10
2018-03-29T04:55:51.822Z,9.65
2018-03-29T04:58:19.445Z,12.05
2018-03-29T05:00:47.895Z,10.65
2018-03-29T05:03:15.567Z,10.40
2018-03-29T05:05:43.249Z,11.88
2018-03-29T05:08:11.621Z,10.80
2018-03-29T05:10:40.091Z,12.02
2018-03-29T05:13:08.427Z,9.82
2018-03-29T05:15:36.062Z,10.75
2018-03-29T05:18:03.690Z,10.13
2018-03-29T05:20:32.074Z,10.50
2018-03-29T05:22:59.840Z,11.55
2018-03-29T05:25:27.426Z,10.68
2018-03-29T05:27:56.776Z,11.88
2018-03-29T05:30:24.431Z,12.23
2018-03-29T05:32:52.027Z,11.55
2018-03-29T05:35:21.346Z,12.63
2018-03-29T05:37:48.936Z,12.27
2018-03-29T05:40:16.600Z,13.25
2018-03-29T05:42:44.185Z,15.50
2018-03-29T05:45:12.441Z,13.57
2018-03-29T05:47:40.042Z,17.75
2018-03-29T05:50:07.678Z,16.65
2018-03-29T05:52:36.224Z,15.57
2018-03-29T05:55:04.662Z,14.68
2018-03-29T05:57:32.576Z,14.70
2018-03-29T06:00:00.196Z,15.70
2018-03-29T06:02:28.360Z,15.60
2018-03-29T06:04:55.979Z,17.23
2018-03-29T06:07:23.633Z,17.10
2018-03-29T06:09:51.279Z,18.25
2018-03-29T06:12:19.018Z,18.02
2018-03-29T06:14:46.683Z,17.02
2018-03-29T06:17:20.799Z,18.70
2018-03-29T06:19:48.463Z,19.95
2018-03-29T06:22:23.843Z,19.80
2018-03-29T06:24:51.450Z,20.77
2018-03-29T06:27:19.071Z,20.75
2018-03-29T06:29:46.682Z,21.30
2018-03-29T06:32:14.431Z,21.98
2018-03-29T06:34:42.086Z,23.92
2018-03-29T06:37:09.902Z,21.95
2018-03-29T06:39:37.683Z,22.87
2018-03-29T06:42:05.684Z,21.62
2018-03-29T06:44:33.288Z,21.62
2018-03-29T06:47:01.118Z,23.10
2018-03-29T06:49:29.572Z,21.92
2018-03-29T06:51:57.251Z,22.05
2018-03-29T06:54:24.892Z,21.77
2018-03-29T06:56:52.534Z,23.35
2018-03-29T06:59:20.211Z,23.50
2018-03-29T07:01:47.874Z,23.67
2018-03-29T07:04:15.533Z,25.55
2018-03-29T07:06:43.106Z,24.50
2018-03-29T07:09:10.783Z,25.48
2018-03-29T07:11:38.372Z,26.58
2018-03-29T07:14:06.003Z,25.45
2018-03-29T07:16:33.713Z,27.05
2018-03-29T07:19:02.062Z,26.02
2018-03-29T07:21:30.946Z,26.48
2018-03-29T07:23:59.666Z,23.95
2018-03-29T07:26:28.043Z,24.15
2018-03-29T07:28:55.643Z,24.65
2018-03-29T07:31:23.319Z,25.00
2018-03-29T07:33:52.445Z,25.88
2018-03-29T07:36:24.533Z,23.75
2018-03-29T07:38:52.210Z,24.70
2018-03-29T07:41:19.848Z,25.12
2018-03-29T07:43:51.351Z,25.55
2018-03-29T07:46:23.095Z,24.63
2018-03-29T07:48:51.299Z,26.27
2018-03-29T07:51:20.057Z,26.55
2018-03-29T07:53:51.414Z,27.30
2018-03-29T07:56:19.050Z,24.73
2018-03-29T07:58:52.902Z,23.85
2018-03-29T08:01:20.562Z,24.27
2018-03-29T08:03:50.284Z,24.65
2018-03-29T08:06:19.041Z,26.15
2018-03-29T08:08:47.392Z,23.98
2018-03-29T08:11:15.103Z,22.13
2018-03-29T08:13:42.728Z,23.00
2018-03-29T08:16:10.320Z,21.80
2018-03-29T08:18:37.985Z,22.48
2018-03-29T08:21:05.657Z,23.05
2018-03-29T08:23:33.258Z,23.50
2018-03-29T08:26:00.910Z,23.10
2018-03-29T08:28:28.562Z,22.10
2018-03-29T08:30:56.219Z,21.95
2018-03-29T08:33:23.954Z,21.75
2018-03-29T08:35:51.582Z,21.50
2018-03-29T08:38:20.723Z,21.20
2018-03-29T08:40:48.404Z,20.08
2018-03-29T08:43:16.086Z,23.30
2018-03-29T08:45:43.719Z,19.60
2018-03-29T08:48:11.340Z,21.05
2018-03-29T08:50:38.989Z,19.08
2018-03-29T08:53:06.629Z,22.17
2018-03-29T08:55:34.302Z,18.98
2018-03-29T08:58:01.896Z,23.40
2018-03-29T09:00:29.506Z,20.55
2018-03-29T09:02:57.168Z,22.73
2018-03-29T09:05:24.779Z,21.40
2018-03-29T09:07:52.438Z,23.85
2018-03-29T09:10:20.036Z,23.70
2018-03-29T09:12:48.472Z,20.88
2018-03-29T09:15:16.129Z,23.45
2018-03-29T09:17:43.823Z,22.45
2018-03-29T09:20:11.534Z,21.65
2018-03-29T09:22:39.247Z,20.62
2018-03-29T09:25:06.844Z,21.20
2018-03-29T09:27:34.456Z,22.52
2018-03-29T09:30:02.073Z,22.25
2018-03-29T09:32:29.773Z,22.02
2018-03-29T09:34:57.356Z,20.98
2018-03-29T09:37:24.983Z,21.83
2018-03-29T09:39:53.386Z,22.35
2018-03-29T09:42:20.987Z,22.02
2018-03-29T09:44:48.697Z,23.83
2018-03-29T09:47:16.332Z,21.55
2018-03-29T09:49:43.928Z,21.52
2018-03-29T09:52:11.921Z,23.35
2018-03-29T09:54:39.539Z,20.83
2018-03-29T09:57:07.936Z,20.83
2018-03-29T09:59:35.558Z,21.75
2018-03-29T10:05:04.537Z,25.23
2018-03-29T10:07:34.139Z,22.17
2018-03-29T10:10:01.853Z,23.92
2018-03-29T10:12:29.452Z,21.48
2018-03-29T10:14:57.216Z,21.40
2018-03-29T10:17:24.933Z,21.87
2018-03-29T10:19:52.596Z,19.30
2018-03-29T10:22:21.016Z,21.92
2018-03-29T10:24:48.684Z,19.75
2018-03-29T10:27:16.334Z,19.87
2018-03-29T10:29:43.929Z,22.08
2018-03-29T10:32:11.575Z,21.23
2018-03-29T10:34:39.298Z,22.13
2018-03-29T10:37:07.695Z,20.45
2018-03-29T10:39:35.423Z,19.20
2018-03-29T10:42:03.084Z,21.37
2018-03-29T10:44:30.782Z,20.05
2018-03-29T10:46:58.392Z,21.75
2018-03-29T10:49:26.012Z,22.50
2018-03-29T10:51:53.633Z,21.35
2018-03-29T10:54:21.380Z,21.30
2018-03-29T10:56:49.488Z,22.67
2018-03-29T10:59:17.161Z,20.25
2018-03-29T11:01:45.572Z,24.60
2018-03-29T11:04:13.161Z,20.08
2018-03-29T11:06:41.413Z,24.02
2018-03-29T11:09:09.046Z,23.30
2018-03-29T11:11:36.713Z,22.95
2018-03-29T11:14:04.455Z,22.58
2018-03-29T11:16:32.054Z,24.48
2018-03-29T11:18:59.783Z,22.75
2018-03-29T11:21:27.446Z,24.20
2018-03-29T11:23:55.085Z,23.92
2018-03-29T11:26:22.752Z,22.02
2018-03-29T11:28:50.405Z,20.20
2018-03-29T11:31:18.087Z,21.30
2018-03-29T11:33:45.740Z,23.23
2018-03-29T11:36:13.368Z,22.10
2018-03-29T11:38:41.057Z,21.40
2018-03-29T11:41:09.507Z,21.05
2018-03-29T11:43:37.171Z,17.95
2018-03-29T11:46:04.763Z,16.52
2018-03-29T11:48:32.424Z,19.95
2018-03-29T11:51:00.198Z,20.42
2018-03-29T11:53:27.795Z,20.73
2018-03-29T11:55:55.447Z,18.80
2018-03-29T11:58:23.051Z,18.70
2018-03-29T12:00:50.714Z,18.65
2018-03-29T12:03:18.327Z,21.98
2018-03-29T12:05:45.946Z,19.35
2018-03-29T12:08:13.576Z,16.70
2018-03-29T12:10:41.206Z,19.92
2018-03-29T12:13:09.615Z,17.08
2018-03-29T12:15:37.202Z,18.42
2018-03-29T12:18:04.865Z,18.95
2018-03-29T12:20:32.518Z,18.70
2018-03-29T12:23:00.188Z,17.20
2018-03-29T12:25:27.866Z,16.50
2018-03-29T12:27:55.483Z,15.63
2018-03-29T12:30:23.086Z,17.87
2018-03-29T12:35:26.015Z,18.50
2018-03-29T12:37:54.442Z,14.98
2018-03-29T12:40:22.047Z,14.07
2018-03-29T12:42:50.467Z,15.40
2018-03-29T12:45:18.350Z,13.50
2018-03-29T12:47:45.965Z,13.50
2018-03-29T12:50:14.531Z,14.73
2018-03-29T12:52:42.093Z,14.85
2018-03-29T12:55:22.182Z,15.20
2018-03-29T12:58:01.578Z,14.52
2018-03-29T13:00:29.271Z,15.65
2018-03-29T13:02:56.863Z,16.87
2018-03-29T13:05:24.642Z,12.77
2018-03-29T13:07:52.263Z,14.55
2018-03-29T13:10:19.937Z,15.45
2018-03-29T13:12:48.045Z,12.32
2018-03-29T13:15:15.964Z,8.88
2018-03-29T13:17:43.665Z,11.38
2018-03-29T13:20:11.317Z,12.02
2018-03-29T13:22:39.732Z,13.27
2018-03-29T13:25:07.372Z,13.20
2018-03-29T13:27:35.333Z,16.02
2018-03-29T13:30:02.902Z,15.35
2018-03-29T13:32:30.478Z,9.98
2018-03-29T13:34:58.213Z,7.62
2018-03-29T13:37:25.952Z,8.55
2018-03-29T13:39:54.335Z,11.85
2018-03-29T13:42:21.938Z,9.20
2018-03-29T13:44:49.558Z,8.25
2018-03-29T13:47:17.247Z,9.30
2018-03-29T13:49:45.135Z,6.40
2018-03-29T13:52:12.782Z,7.20
2018-03-29T13:54:40.379Z,5.60
2018-03-29T13:57:08.036Z,6.05
2018-03-29T13:59:35.658Z,6.32
2018-03-29T14:02:03.328Z,4.85
2018-03-29T14:04:30.914Z,5.37
2018-03-29T14:06:58.614Z,5.32
2018-03-29T14:09:26.202Z,5.15
2018-03-29T14:11:53.807Z,5.10
2018-03-29T14:14:21.388Z,5.37
2018-03-29T14:16:49.828Z,5.10
2018-03-29T14:19:17.443Z,5.68
2018-03-29T14:21:45.035Z,5.60
2018-03-29T14:24:12.703Z,6.03
2018-03-29T14:26:40.295Z,7.18
2018-03-29T14:29:07.967Z,6.70
2018-03-29T14:31:36.440Z,7.05
2018-03-29T14:34:04.025Z,8.75
2018-03-29T14:36:32.147Z,9.23
2018-03-29T14:39:00.192Z,8.10
2018-03-29T14:41:27.871Z,7.70
2018-03-29T14:43:55.448Z,7.65
2018-03-29T14:46:23.875Z,8.85
2018-03-29T14:48:51.632Z,8.85
2018-03-29T14:51:19.330Z,9.20
2018-03-29T14:53:46.992Z,10.50
2018-03-29T14:56:14.622Z,8.65
2018-03-29T14:58:42.335Z,9.40
2018-03-29T15:01:10.331Z,6.93
2018-03-29T15:03:37.921Z,5.70
2018-03-29T15:06:05.630Z,3.25
2018-03-29T15:08:33.394Z,3.80
2018-03-29T15:11:01.208Z,3.67
2018-03-29T15:13:29.175Z,4.12
2018-03-29T15:15:56.829Z,4.05
2018-03-29T15:18:24.456Z,2.95
2018-03-29T15:20:52.158Z,3.25
2018-03-29T15:23:19.804Z,2.65
2018-03-29T15:25:47.474Z,3.05
2018-03-29T15:28:15.137Z,2.03
2018-03-29T15:30:43.576Z,2.50
2018-03-29T15:33:11.278Z,2.85
2018-03-29T15:35:39.686Z,3.62
2018-03-29T15:38:07.359Z,3.05
2018-03-29T15:40:35.204Z,2.85
2018-03-29T15:43:02.869Z,3.12
2018-03-29T15:45:30.505Z,3.20
2018-03-29T15:47:59.827Z,4.57
2018-03-29T15:50:27.425Z,3.47
2018-03-29T15:52:55.052Z,4.60
2018-03-29T15:55:22.690Z,4.62
2018-03-29T15:57:51.059Z,4.65
2018-03-29T16:00:18.767Z,4.70
2018-03-29T16:02:46.402Z,5.32
2018-03-29T16:05:14.839Z,5.30
2018-03-29T16:07:42.654Z,5.57
2018-03-29T16:10:10.208Z,5.18
2018-03-29T16:12:37.812Z,6.15
2018-03-29T16:15:05.413Z,6.00
2018-03-29T16:17:34.004Z,5.93
2018-03-29T16:20:02.376Z,6.18
2018-03-29T16:22:29.983Z,6.32
2018-03-29T16:24:57.606Z,5.90
2018-03-29T16:27:25.416Z,6.18
2018-03-29T16:29:53.170Z,7.10
2018-03-29T16:32:20.894Z,6.57
2018-03-29T16:34:50.261Z,5.80
2018-03-29T16:37:17.857Z,6.00
2018-03-29T16:39:46.455Z,6.15
2018-03-29T16:42:14.062Z,6.45
2018-03-29T16:44:42.666Z,5.70
2018-03-29T16:47:10.328Z,7.45
2018-03-29T16:49:38.190Z,7.90
2018-03-29T16:52:05.897Z,7.35
2018-03-29T16:54:33.527Z,6.82
2018-03-29T16:57:01.209Z,7.45
2018-03-29T16:59:29.580Z,7.50
2018-03-29T17:01:58.003Z,6.90
2018-03-29T17:04:25.779Z,6.90
2018-03-29T17:06:53.502Z,8.05
2018-03-29T17:09:21.477Z,7.30
2018-03-29T17:11:49.151Z,7.57
2018-03-29T17:14:16.845Z,7.85
2018-03-29T17:16:44.443Z,7.22
2018-03-29T17:19:12.851Z,7.45
2018-03-29T17:21:40.492Z,7.30
2018-03-29T17:24:08.077Z,7.68
2018-03-29T17:26:35.702Z,7.57
2018-03-29T17:29:04.078Z,6.90
2018-03-29T17:31:32.089Z,7.12
2018-03-29T17:33:59.719Z,8.13
2018-03-29T17:36:28.128Z,8.15
2018-03-29T17:38:55.808Z,8.02
2018-03-29T17:41:23.489Z,8.38
2018-03-29T17:43:51.323Z,8.30
2018-03-29T17:46:19.095Z,8.40
2018-03-29T17:48:46.860Z,8.57
2018-03-29T17:51:14.524Z,8.10
2018-03-29T17:53:42.174Z,8.98
2018-03-29T17:56:09.819Z,8.82
2018-03-29T17:58:37.476Z,8.50
2018-03-29T18:01:05.898Z,9.57
2018-03-29T18:03:33.653Z,9.43
2018-03-29T18:06:01.418Z,9.40
2018-03-29T18:08:29.611Z,9.80
2018-03-29T18:10:57.254Z,9.98
2018-03-29T18:13:24.961Z,9.93
2018-03-29T18:15:54.011Z,9.65
2018-03-29T18:18:21.831Z,10.10
2018-03-29T18:20:49.785Z,10.10
2018-03-29T18:23:26.991Z,9.77
2018-03-29T18:25:54.698Z,9.68
2018-03-29T18:28:22.508Z,9.27
2018-03-29T18:30:50.244Z,10.95
2018-03-29T18:33:17.938Z,10.82
2018-03-29T18:35:45.706Z,9.13
2018-03-29T18:38:14.333Z,9.52
2018-03-29T18:40:42.976Z,10.35
2018-03-29T18:43:10.783Z,9.48
2018-03-29T18:45:38.524Z,10.85
2018-03-29T18:48:06.263Z,9.23
2018-03-29T18:50:34.795Z,10.32
2018-03-29T18:53:02.618Z,10.43
2018-03-29T18:55:30.443Z,9.35
2018-03-29T18:58:05.186Z,10.52
2018-03-29T19:00:32.847Z,10.90
2018-03-29T19:03:00.503Z,14.10
2018-03-29T19:05:28.397Z,14.05
2018-03-29T19:07:57.010Z,12.25
2018-03-29T19:10:24.754Z,13.13
2018-03-29T19:12:54.256Z,11.05
2018-03-29T19:15:22.136Z,13.80
2018-03-29T19:17:50.304Z,13.77
2018-03-29T19:20:18.180Z,14.40
2018-03-29T19:22:46.858Z,14.07
2018-03-29T19:25:14.628Z,17.00
2018-03-29T19:27:42.848Z,14.85
2018-03-29T19:30:50.947Z,14.85
2018-03-29T19:33:18.795Z,17.62
2018-03-29T19:35:47.286Z,18.58
2018-03-29T19:38:15.067Z,19.85
2018-03-29T19:40:43.150Z,21.58
2018-03-29T19:43:11.063Z,16.73
2018-03-29T19:45:38.823Z,19.90
2018-03-29T19:48:06.491Z,19.65
2018-03-29T19:50:34.810Z,20.77
2018-03-29T19:53:02.448Z,25.45
2018-03-29T19:55:30.875Z,18.62
2018-03-29T19:57:58.533Z,28.00
2018-03-29T20:00:26.220Z,20.85
2018-03-29T20:02:53.907Z,17.67
2018-03-29T20:05:22.532Z,23.42
2018-03-29T20:07:50.421Z,27.98
2018-03-29T20:10:18.073Z,23.77
2018-03-29T20:12:46.037Z,24.70
2018-03-29T20:15:13.748Z,20.08
2018-03-29T20:17:41.462Z,22.95
2018-03-29T20:20:09.173Z,26.25
2018-03-29T20:22:36.993Z,22.08
2018-03-29T20:25:04.658Z,24.75
2018-03-29T20:27:32.403Z,20.75
2018-03-29T20:30:00.214Z,21.67
2018-03-29T20:32:28.627Z,20.37
2018-03-29T20:34:56.350Z,19.10
2018-03-29T20:37:24.015Z,19.20
2018-03-29T20:39:51.722Z,19.20
2018-03-29T20:42:19.546Z,20.45
2018-03-29T20:44:47.264Z,20.02
2018-03-29T20:47:15.940Z,19.23
2018-03-29T20:49:43.662Z,20.20
2018-03-29T20:52:11.263Z,19.12
2018-03-29T20:54:38.953Z,19.83
2018-03-29T20:57:06.857Z,19.27
2018-03-29T20:59:34.696Z,21.00
2018-03-29T21:02:02.431Z,20.17
2018-03-29T21:04:30.153Z,18.60
2018-03-29T21:06:57.853Z,20.17
2018-03-29T21:09:25.539Z,21.77
2018-03-29T21:11:53.488Z,20.98
2018-03-29T21:14:21.157Z,20.77
2018-03-29T21:16:48.888Z,22.80
2018-03-29T21:19:18.253Z,21.35
2018-03-29T21:21:45.905Z,21.58
2018-03-29T21:24:13.661Z,21.12
2018-03-29T21:26:41.499Z,20.90
2018-03-29T21:29:10.056Z,21.65
2018-03-29T21:31:38.587Z,22.40
2018-03-29T21:34:06.510Z,20.50
2018-03-29T21:36:34.178Z,20.10
2018-03-29T21:39:01.898Z,20.52
2018-03-29T21:41:29.620Z,21.15
2018-03-29T21:43:57.525Z,19.92
2018-03-29T21:46:25.209Z,20.20
2018-03-29T21:48:53.161Z,22.08
2018-03-29T21:51:20.824Z,20.70
2018-03-29T21:53:48.542Z,20.27
2018-03-29T21:56:16.258Z,19.85
2018-03-29T21:58:44.141Z,20.58
2018-03-29T22:01:11.766Z,20.45
2018-03-29T22:03:39.409Z,21.00
2018-03-29T22:06:07.079Z,20.20
2018-03-29T22:08:34.846Z,19.67
2018-03-29T22:11:03.000Z,20.48
2018-03-29T22:13:31.413Z,22.33
2018-03-29T22:15:59.129Z,21.27
2018-03-29T22:18:26.794Z,19.65
2018-03-29T22:20:54.415Z,19.80
2018-03-29T22:23:22.068Z,20.92
2018-03-29T22:25:50.486Z,21.42
2018-03-29T22:28:18.396Z,22.55
2018-03-29T22:30:46.262Z,22.27
2018-03-29T22:33:14.179Z,18.42
2018-03-29T22:35:41.854Z,19.98
2018-03-29T22:38:10.264Z,19.67
2018-03-29T22:40:37.877Z,19.12
2018-03-29T22:43:06.284Z,22.45
2018-03-29T22:45:34.707Z,19.70
2018-03-29T22:48:02.371Z,21.02
2018-03-29T22:50:29.980Z,20.80
2018-03-29T22:52:59.189Z,20.48
2018-03-29T22:55:27.548Z,19.90
2018-03-29T22:57:55.197Z,20.73
2018-03-29T23:00:40.693Z,22.23
2018-03-29T23:03:08.324Z,21.30
2018-03-29T23:05:35.993Z,18.73
2018-03-29T23:08:03.673Z,21.85
2018-03-29T23:10:31.534Z,20.40
2018-03-29T23:12:59.175Z,19.58
2018-03-29T23:15:26.854Z,20.88
2018-03-29T23:17:54.537Z,19.85
2018-03-29T23:20:22.184Z,19.77
2018-03-29T23:22:50.659Z,22.05
2018-03-29T23:25:18.313Z,22.90
2018-03-29T23:27:49.783Z,20.83
2018-03-29T23:30:18.420Z,20.67
2018-03-29T23:32:46.044Z,22.33
2018-03-29T23:35:13.664Z,22.90
2018-03-29T23:37:41.277Z,23.20
2018-03-29T23:40:09.665Z,20.33
2018-03-29T23:42:37.315Z,24.00
2018-03-29T23:45:05.682Z,22.92
2018-03-29T23:47:33.420Z,20.15
2018-03-29T23:50:01.050Z,20.40
2018-03-29T23:52:29.267Z,23.67
2018-03-29T23:54:56.891Z,22.75
2018-03-29T23:57:24.548Z,20.98
2018-03-29T23:59:52.267Z,21.75
